sensor_id;sensor_type;location;lat;lon;timestamp;pressure;altitude;pressure_sealevel;temperature
76895;BMP280;65855;42.030;13.078;2023-08-07T00:02:23;93284.25;;;14.01
76895;BMP280;65855;42.030;13.078;2023-08-07T00:04:48;93283.06;;;14.27
76895;BMP280;65855;42.030;13.078;2023-08-07T00:07:14;93276.44;;;14.43
76895;BMP280;65855;42.030;13.078;2023-08-07T00:09:39;93278.94;;;14.51
76895;BMP280;65855;42.030;13.078;2023-08-07T00:12:05;93267.72;;;14.52
76895;BMP280;65855;42.030;13.078;2023-08-07T00:14:30;93265.56;;;14.42
76895;BMP280;65855;42.030;13.078;2023-08-07T00:16:56;93266.53;;;14.30
76895;BMP280;65855;42.030;13.078;2023-08-07T00:19:21;93270.44;;;14.19
76895;BMP280;65855;42.030;13.078;2023-08-07T00:21:46;93274.66;;;14.15
76895;BMP280;65855;42.030;13.078;2023-08-07T00:24:12;93269.59;;;14.15
76895;BMP280;65855;42.030;13.078;2023-08-07T00:26:37;93275.53;;;14.19
76895;BMP280;65855;42.030;13.078;2023-08-07T00:29:03;93269.19;;;14.05
76895;BMP280;65855;42.030;13.078;2023-08-07T00:31:28;93275.63;;;13.86
76895;BMP280;65855;42.030;13.078;2023-08-07T00:33:57;93274.28;;;13.96
76895;BMP280;65855;42.030;13.078;2023-08-07T00:36:22;93280.69;;;14.02
76895;BMP280;65855;42.030;13.078;2023-08-07T00:38:48;93281.28;;;13.99
76895;BMP280;65855;42.030;13.078;2023-08-07T00:41:16;93279.44;;;14.08
76895;BMP280;65855;42.030;13.078;2023-08-07T00:43:42;93277.09;;;14.03
76895;BMP280;65855;42.030;13.078;2023-08-07T00:46:07;93280.53;;;13.99
76895;BMP280;65855;42.030;13.078;2023-08-07T00:48:33;93270.88;;;13.93
76895;BMP280;65855;42.030;13.078;2023-08-07T00:50:58;93279.91;;;14.10
76895;BMP280;65855;42.030;13.078;2023-08-07T00:53:24;93271.44;;;14.26
76895;BMP280;65855;42.030;13.078;2023-08-07T00:55:50;93264.78;;;14.22
76895;BMP280;65855;42.030;13.078;2023-08-07T00:58:16;93264.63;;;14.18
76895;BMP280;65855;42.030;13.078;2023-08-07T01:00:42;93272.66;;;13.92
76895;BMP280;65855;42.030;13.078;2023-08-07T01:03:07;93261.41;;;14.10
76895;BMP280;65855;42.030;13.078;2023-08-07T01:05:33;93268.81;;;14.15
76895;BMP280;65855;42.030;13.078;2023-08-07T01:07:59;93267.38;;;14.05
76895;BMP280;65855;42.030;13.078;2023-08-07T01:13:01;93262.91;;;13.57
76895;BMP280;65855;42.030;13.078;2023-08-07T01:15:31;93267.97;;;13.49
76895;BMP280;65855;42.030;13.078;2023-08-07T01:17:59;93271.88;;;13.46
76895;BMP280;65855;42.030;13.078;2023-08-07T01:20:25;93270.09;;;13.47
76895;BMP280;65855;42.030;13.078;2023-08-07T01:22:50;93261.13;;;13.49
76895;BMP280;65855;42.030;13.078;2023-08-07T01:25:16;93262.00;;;13.70
76895;BMP280;65855;42.030;13.078;2023-08-07T01:28:02;93252.41;;;13.84
76895;BMP280;65855;42.030;13.078;2023-08-07T01:30:37;93257.25;;;14.05
76895;BMP280;65855;42.030;13.078;2023-08-07T01:33:24;93258.19;;;13.93
76895;BMP280;65855;42.030;13.078;2023-08-07T01:35:53;93259.69;;;13.93
76895;BMP280;65855;42.030;13.078;2023-08-07T01:38:24;93257.59;;;13.87
76895;BMP280;65855;42.030;13.078;2023-08-07T01:40:51;93262.31;;;13.60
76895;BMP280;65855;42.030;13.078;2023-08-07T01:43:18;93261.06;;;13.13
76895;BMP280;65855;42.030;13.078;2023-08-07T01:45:44;93255.41;;;12.99
76895;BMP280;65855;42.030;13.078;2023-08-07T01:48:10;93255.97;;;13.29
76895;BMP280;65855;42.030;13.078;2023-08-07T01:50:38;93252.44;;;13.67
76895;BMP280;65855;42.030;13.078;2023-08-07T01:53:03;93253.34;;;13.71
76895;BMP280;65855;42.030;13.078;2023-08-07T01:55:29;93247.88;;;13.52
76895;BMP280;65855;42.030;13.078;2023-08-07T01:57:54;93249.88;;;13.05
76895;BMP280;65855;42.030;13.078;2023-08-07T02:00:20;93263.56;;;13.21
76895;BMP280;65855;42.030;13.078;2023-08-07T02:02:46;93262.31;;;13.44
76895;BMP280;65855;42.030;13.078;2023-08-07T02:05:12;93260.09;;;13.50
76895;BMP280;65855;42.030;13.078;2023-08-07T02:07:37;93258.78;;;13.36
76895;BMP280;65855;42.030;13.078;2023-08-07T02:10:03;93254.78;;;13.10
76895;BMP280;65855;42.030;13.078;2023-08-07T02:12:29;93266.56;;;12.81
76895;BMP280;65855;42.030;13.078;2023-08-07T02:14:57;93261.50;;;12.90
76895;BMP280;65855;42.030;13.078;2023-08-07T02:17:24;93259.00;;;12.81
76895;BMP280;65855;42.030;13.078;2023-08-07T02:19:50;93253.34;;;12.93
76895;BMP280;65855;42.030;13.078;2023-08-07T02:22:16;93255.97;;;12.63
76895;BMP280;65855;42.030;13.078;2023-08-07T02:24:41;93258.69;;;12.83
76895;BMP280;65855;42.030;13.078;2023-08-07T02:27:07;93250.03;;;12.92
76895;BMP280;65855;42.030;13.078;2023-08-07T02:29:32;93246.56;;;13.30
76895;BMP280;65855;42.030;13.078;2023-08-07T02:32:01;93237.66;;;13.24
76895;BMP280;65855;42.030;13.078;2023-08-07T02:34:27;93254.91;;;13.39
76895;BMP280;65855;42.030;13.078;2023-08-07T02:36:52;93249.09;;;13.30
76895;BMP280;65855;42.030;13.078;2023-08-07T02:39:17;93246.56;;;13.46
76895;BMP280;65855;42.030;13.078;2023-08-07T02:41:43;93244.44;;;13.48
76895;BMP280;65855;42.030;13.078;2023-08-07T02:44:08;93246.06;;;13.61
76895;BMP280;65855;42.030;13.078;2023-08-07T02:46:33;93246.94;;;13.57
76895;BMP280;65855;42.030;13.078;2023-08-07T02:49:01;93248.38;;;13.38
76895;BMP280;65855;42.030;13.078;2023-08-07T02:51:27;93252.53;;;13.34
76895;BMP280;65855;42.030;13.078;2023-08-07T02:53:52;93245.25;;;13.16
76895;BMP280;65855;42.030;13.078;2023-08-07T02:56:17;93251.22;;;13.20
76895;BMP280;65855;42.030;13.078;2023-08-07T02:58:43;93240.94;;;13.16
76895;BMP280;65855;42.030;13.078;2023-08-07T03:01:08;93246.31;;;12.90
76895;BMP280;65855;42.030;13.078;2023-08-07T03:03:34;93254.06;;;12.85
76895;BMP280;65855;42.030;13.078;2023-08-07T03:06:00;93252.88;;;12.74
76895;BMP280;65855;42.030;13.078;2023-08-07T03:08:25;93249.72;;;13.10
76895;BMP280;65855;42.030;13.078;2023-08-07T03:10:55;93255.22;;;13.29
76895;BMP280;65855;42.030;13.078;2023-08-07T03:13:24;93252.53;;;13.34
76895;BMP280;65855;42.030;13.078;2023-08-07T03:15:50;93258.66;;;13.33
76895;BMP280;65855;42.030;13.078;2023-08-07T03:18:16;93258.41;;;12.93
76895;BMP280;65855;42.030;13.078;2023-08-07T03:20:42;93268.75;;;12.66
76895;BMP280;65855;42.030;13.078;2023-08-07T03:23:09;93275.34;;;12.75
76895;BMP280;65855;42.030;13.078;2023-08-07T03:25:34;93275.16;;;12.64
76895;BMP280;65855;42.030;13.078;2023-08-07T03:28:00;93264.78;;;12.98
76895;BMP280;65855;42.030;13.078;2023-08-07T03:30:25;93258.34;;;13.18
76895;BMP280;65855;42.030;13.078;2023-08-07T03:32:51;93259.53;;;13.12
76895;BMP280;65855;42.030;13.078;2023-08-07T03:35:16;93264.03;;;13.06
76895;BMP280;65855;42.030;13.078;2023-08-07T03:37:41;93260.59;;;13.11
76895;BMP280;65855;42.030;13.078;2023-08-07T03:40:07;93263.28;;;13.14
76895;BMP280;65855;42.030;13.078;2023-08-07T03:42:33;93262.38;;;13.10
76895;BMP280;65855;42.030;13.078;2023-08-07T03:44:58;93256.16;;;13.08
76895;BMP280;65855;42.030;13.078;2023-08-07T03:47:23;93257.19;;;13.07
76895;BMP280;65855;42.030;13.078;2023-08-07T03:49:49;93255.41;;;12.91
76895;BMP280;65855;42.030;13.078;2023-08-07T03:52:15;93253.47;;;12.88
76895;BMP280;65855;42.030;13.078;2023-08-07T03:54:40;93258.53;;;12.88
76895;BMP280;65855;42.030;13.078;2023-08-07T03:57:06;93260.47;;;12.82
76895;BMP280;65855;42.030;13.078;2023-08-07T03:59:33;93254.50;;;12.95
76895;BMP280;65855;42.030;13.078;2023-08-07T04:01:59;93251.22;;;13.03
76895;BMP280;65855;42.030;13.078;2023-08-07T04:04:24;93240.34;;;13.19
76895;BMP280;65855;42.030;13.078;2023-08-07T04:06:49;93249.28;;;13.08
76895;BMP280;65855;42.030;13.078;2023-08-07T04:09:15;93250.69;;;12.26
76895;BMP280;65855;42.030;13.078;2023-08-07T04:11:42;93254.66;;;12.02
76895;BMP280;65855;42.030;13.078;2023-08-07T04:14:07;93251.19;;;12.36
76895;BMP280;65855;42.030;13.078;2023-08-07T04:16:33;93246.72;;;12.42
76895;BMP280;65855;42.030;13.078;2023-08-07T04:18:58;93246.50;;;12.93
76895;BMP280;65855;42.030;13.078;2023-08-07T04:21:24;93248.72;;;12.95
76895;BMP280;65855;42.030;13.078;2023-08-07T04:23:49;93252.59;;;13.00
76895;BMP280;65855;42.030;13.078;2023-08-07T04:26:14;93255.41;;;12.99
76895;BMP280;65855;42.030;13.078;2023-08-07T04:28:40;93275.94;;;12.73
76895;BMP280;65855;42.030;13.078;2023-08-07T04:31:06;93276.03;;;12.59
76895;BMP280;65855;42.030;13.078;2023-08-07T04:33:31;93269.56;;;12.20
76895;BMP280;65855;42.030;13.078;2023-08-07T04:35:56;93272.16;;;11.90
76895;BMP280;65855;42.030;13.078;2023-08-07T04:38:22;93275.34;;;11.74
76895;BMP280;65855;42.030;13.078;2023-08-07T04:40:48;93282.09;;;11.87
76895;BMP280;65855;42.030;13.078;2023-08-07T04:43:14;93287.66;;;11.97
76895;BMP280;65855;42.030;13.078;2023-08-07T04:45:40;93289.88;;;11.99
76895;BMP280;65855;42.030;13.078;2023-08-07T04:48:09;93296.69;;;11.90
76895;BMP280;65855;42.030;13.078;2023-08-07T04:50:35;93290.63;;;11.69
76895;BMP280;65855;42.030;13.078;2023-08-07T04:53:00;93296.59;;;11.73
76895;BMP280;65855;42.030;13.078;2023-08-07T04:55:26;93301.66;;;11.81
76895;BMP280;65855;42.030;13.078;2023-08-07T04:57:51;93300.41;;;12.00
76895;BMP280;65855;42.030;13.078;2023-08-07T05:00:20;93303.91;;;12.21
76895;BMP280;65855;42.030;13.078;2023-08-07T05:02:46;93296.00;;;12.14
76895;BMP280;65855;42.030;13.078;2023-08-07T05:05:13;93300.59;;;12.04
76895;BMP280;65855;42.030;13.078;2023-08-07T05:07:40;93303.75;;;12.09
76895;BMP280;65855;42.030;13.078;2023-08-07T05:10:06;93302.66;;;12.48
76895;BMP280;65855;42.030;13.078;2023-08-07T05:12:31;93303.41;;;12.57
76895;BMP280;65855;42.030;13.078;2023-08-07T05:14:57;93302.38;;;12.67
76895;BMP280;65855;42.030;13.078;2023-08-07T05:17:22;93302.44;;;13.00
76895;BMP280;65855;42.030;13.078;2023-08-07T05:19:48;93294.22;;;13.45
76895;BMP280;65855;42.030;13.078;2023-08-07T05:22:13;93293.41;;;13.69
76895;BMP280;65855;42.030;13.078;2023-08-07T05:24:39;93293.25;;;13.74
76895;BMP280;65855;42.030;13.078;2023-08-07T05:27:06;93284.88;;;13.98
76895;BMP280;65855;42.030;13.078;2023-08-07T05:29:33;93283.44;;;14.18
76895;BMP280;65855;42.030;13.078;2023-08-07T05:31:59;93274.03;;;14.18
76895;BMP280;65855;42.030;13.078;2023-08-07T05:34:24;93278.47;;;14.21
76895;BMP280;65855;42.030;13.078;2023-08-07T05:36:50;93277.97;;;14.36
76895;BMP280;65855;42.030;13.078;2023-08-07T05:39:16;93277.81;;;14.41
76895;BMP280;65855;42.030;13.078;2023-08-07T05:41:41;93274.09;;;14.58
76895;BMP280;65855;42.030;13.078;2023-08-07T05:44:06;93272.81;;;14.72
76895;BMP280;65855;42.030;13.078;2023-08-07T05:46:32;93274.00;;;14.75
76895;BMP280;65855;42.030;13.078;2023-08-07T05:48:57;93271.78;;;14.93
76895;BMP280;65855;42.030;13.078;2023-08-07T05:51:23;93270.88;;;15.18
76895;BMP280;65855;42.030;13.078;2023-08-07T05:53:48;93265.44;;;15.39
76895;BMP280;65855;42.030;13.078;2023-08-07T05:56:14;93272.44;;;15.42
76895;BMP280;65855;42.030;13.078;2023-08-07T05:58:39;93278.66;;;15.77
76895;BMP280;65855;42.030;13.078;2023-08-07T06:01:05;93285.53;;;16.55
76895;BMP280;65855;42.030;13.078;2023-08-07T06:03:31;93291.28;;;16.91
76895;BMP280;65855;42.030;13.078;2023-08-07T06:05:57;93286.66;;;17.32
76895;BMP280;65855;42.030;13.078;2023-08-07T06:08:22;93293.66;;;17.77
76895;BMP280;65855;42.030;13.078;2023-08-07T06:10:48;93291.59;;;18.09
76895;BMP280;65855;42.030;13.078;2023-08-07T06:13:13;93293.13;;;18.59
76895;BMP280;65855;42.030;13.078;2023-08-07T06:15:39;93296.50;;;18.97
76895;BMP280;65855;42.030;13.078;2023-08-07T06:18:04;93302.47;;;19.38
76895;BMP280;65855;42.030;13.078;2023-08-07T06:20:29;93303.63;;;19.99
76895;BMP280;65855;42.030;13.078;2023-08-07T06:22:55;93296.16;;;19.69
76895;BMP280;65855;42.030;13.078;2023-08-07T06:25:21;93300.13;;;20.29
76895;BMP280;65855;42.030;13.078;2023-08-07T06:27:46;93297.09;;;20.46
76895;BMP280;65855;42.030;13.078;2023-08-07T06:30:12;93301.06;;;21.17
76895;BMP280;65855;42.030;13.078;2023-08-07T06:32:39;93307.25;;;20.87
76895;BMP280;65855;42.030;13.078;2023-08-07T06:35:05;93307.94;;;20.84
76895;BMP280;65855;42.030;13.078;2023-08-07T06:37:31;93301.56;;;21.00
76895;BMP280;65855;42.030;13.078;2023-08-07T06:39:56;93298.31;;;21.96
76895;BMP280;65855;42.030;13.078;2023-08-07T06:42:22;93297.28;;;22.40
76895;BMP280;65855;42.030;13.078;2023-08-07T06:44:47;93292.72;;;22.23
76895;BMP280;65855;42.030;13.078;2023-08-07T06:47:13;93297.38;;;22.08
76895;BMP280;65855;42.030;13.078;2023-08-07T06:49:38;93299.34;;;22.24
76895;BMP280;65855;42.030;13.078;2023-08-07T06:52:04;93290.88;;;22.66
76895;BMP280;65855;42.030;13.078;2023-08-07T06:54:29;93288.44;;;22.87
76895;BMP280;65855;42.030;13.078;2023-08-07T06:56:55;93300.94;;;22.85
76895;BMP280;65855;42.030;13.078;2023-08-07T06:59:20;93295.66;;;23.28
76895;BMP280;65855;42.030;13.078;2023-08-07T07:01:46;93299.13;;;22.43
76895;BMP280;65855;42.030;13.078;2023-08-07T07:04:11;93313.84;;;22.46
76895;BMP280;65855;42.030;13.078;2023-08-07T07:06:37;93308.81;;;23.09
76895;BMP280;65855;42.030;13.078;2023-08-07T07:09:03;93301.78;;;23.90
76895;BMP280;65855;42.030;13.078;2023-08-07T07:11:29;93304.09;;;24.12
76895;BMP280;65855;42.030;13.078;2023-08-07T07:13:55;93300.38;;;24.10
76895;BMP280;65855;42.030;13.078;2023-08-07T07:16:21;93300.59;;;23.57
76895;BMP280;65855;42.030;13.078;2023-08-07T07:18:50;93302.56;;;24.01
76895;BMP280;65855;42.030;13.078;2023-08-07T07:21:16;93310.00;;;24.54
76895;BMP280;65855;42.030;13.078;2023-08-07T07:23:42;93314.38;;;24.22
76895;BMP280;65855;42.030;13.078;2023-08-07T07:26:07;93322.88;;;25.08
76895;BMP280;65855;42.030;13.078;2023-08-07T07:28:32;93319.19;;;25.09
76895;BMP280;65855;42.030;13.078;2023-08-07T07:30:58;93327.13;;;23.74
76895;BMP280;65855;42.030;13.078;2023-08-07T07:33:23;93327.53;;;23.90
76895;BMP280;65855;42.030;13.078;2023-08-07T07:35:49;93321.31;;;24.01
76895;BMP280;65855;42.030;13.078;2023-08-07T07:38:14;93322.16;;;24.70
76895;BMP280;65855;42.030;13.078;2023-08-07T07:40:41;93329.84;;;25.18
76895;BMP280;65855;42.030;13.078;2023-08-07T07:43:07;93323.19;;;24.08
76895;BMP280;65855;42.030;13.078;2023-08-07T07:45:32;93320.06;;;23.51
76895;BMP280;65855;42.030;13.078;2023-08-07T07:48:04;93331.34;;;25.12
76895;BMP280;65855;42.030;13.078;2023-08-07T07:50:29;93329.06;;;25.45
76895;BMP280;65855;42.030;13.078;2023-08-07T07:52:54;93327.47;;;25.82
76895;BMP280;65855;42.030;13.078;2023-08-07T07:55:20;93321.44;;;26.12
76895;BMP280;65855;42.030;13.078;2023-08-07T07:57:45;93316.81;;;27.33
76895;BMP280;65855;42.030;13.078;2023-08-07T08:00:12;93313.34;;;26.60
76895;BMP280;65855;42.030;13.078;2023-08-07T08:02:39;93313.56;;;26.83
76895;BMP280;65855;42.030;13.078;2023-08-07T08:05:07;93309.53;;;26.25
76895;BMP280;65855;42.030;13.078;2023-08-07T08:07:33;93314.03;;;24.61
76895;BMP280;65855;42.030;13.078;2023-08-07T08:10:00;93309.59;;;26.15
76895;BMP280;65855;42.030;13.078;2023-08-07T08:12:26;93312.59;;;26.06
76895;BMP280;65855;42.030;13.078;2023-08-07T08:14:51;93309.13;;;26.30
76895;BMP280;65855;42.030;13.078;2023-08-07T08:17:16;93304.13;;;27.72
76895;BMP280;65855;42.030;13.078;2023-08-07T08:19:42;93310.69;;;28.12
76895;BMP280;65855;42.030;13.078;2023-08-07T08:22:07;93312.94;;;24.86
76895;BMP280;65855;42.030;13.078;2023-08-07T08:24:33;93322.31;;;25.79
76895;BMP280;65855;42.030;13.078;2023-08-07T08:26:58;93314.44;;;26.66
76895;BMP280;65855;42.030;13.078;2023-08-07T08:29:24;93311.16;;;27.42
76895;BMP280;65855;42.030;13.078;2023-08-07T08:31:49;93319.63;;;28.08
76895;BMP280;65855;42.030;13.078;2023-08-07T08:34:18;93308.75;;;27.90
76895;BMP280;65855;42.030;13.078;2023-08-07T08:36:43;93316.84;;;29.38
76895;BMP280;65855;42.030;13.078;2023-08-07T08:39:08;93304.25;;;28.72
76895;BMP280;65855;42.030;13.078;2023-08-07T08:41:34;93316.63;;;29.70
76895;BMP280;65855;42.030;13.078;2023-08-07T08:44:01;93310.69;;;29.70
76895;BMP280;65855;42.030;13.078;2023-08-07T08:46:29;93302.13;;;30.08
76895;BMP280;65855;42.030;13.078;2023-08-07T08:48:57;93302.72;;;30.15
76895;BMP280;65855;42.030;13.078;2023-08-07T08:51:24;93313.50;;;29.79
76895;BMP280;65855;42.030;13.078;2023-08-07T08:53:52;93315.41;;;30.13
76895;BMP280;65855;42.030;13.078;2023-08-07T08:56:19;93318.44;;;29.32
76895;BMP280;65855;42.030;13.078;2023-08-07T08:58:48;93314.69;;;28.69
76895;BMP280;65855;42.030;13.078;2023-08-07T09:01:14;93323.06;;;28.27
76895;BMP280;65855;42.030;13.078;2023-08-07T09:03:40;93324.66;;;27.20
76895;BMP280;65855;42.030;13.078;2023-08-07T09:06:06;93332.22;;;26.57
76895;BMP280;65855;42.030;13.078;2023-08-07T09:08:32;93336.88;;;24.73
76895;BMP280;65855;42.030;13.078;2023-08-07T09:10:58;93335.31;;;25.61
76895;BMP280;65855;42.030;13.078;2023-08-07T09:13:25;93333.28;;;26.67
76895;BMP280;65855;42.030;13.078;2023-08-07T09:15:53;93331.50;;;27.00
76895;BMP280;65855;42.030;13.078;2023-08-07T09:18:19;93345.06;;;26.14
76895;BMP280;65855;42.030;13.078;2023-08-07T09:20:48;93354.88;;;25.56
76895;BMP280;65855;42.030;13.078;2023-08-07T09:23:15;93339.94;;;26.01
76895;BMP280;65855;42.030;13.078;2023-08-07T09:25:41;93342.19;;;26.55
76895;BMP280;65855;42.030;13.078;2023-08-07T09:28:07;93342.28;;;25.68
76895;BMP280;65855;42.030;13.078;2023-08-07T09:30:34;93351.19;;;25.56
76895;BMP280;65855;42.030;13.078;2023-08-07T09:33:01;93345.09;;;27.14
76895;BMP280;65855;42.030;13.078;2023-08-07T09:35:29;93343.72;;;27.00
76895;BMP280;65855;42.030;13.078;2023-08-07T09:37:56;93345.56;;;26.49
76895;BMP280;65855;42.030;13.078;2023-08-07T09:40:22;93347.59;;;26.78
76895;BMP280;65855;42.030;13.078;2023-08-07T09:42:52;93352.03;;;24.78
76895;BMP280;65855;42.030;13.078;2023-08-07T09:45:25;93351.47;;;27.03
76895;BMP280;65855;42.030;13.078;2023-08-07T09:48:02;93349.22;;;28.10
76895;BMP280;65855;42.030;13.078;2023-08-07T09:50:28;93348.75;;;27.13
76895;BMP280;65855;42.030;13.078;2023-08-07T09:52:54;93347.16;;;26.86
76895;BMP280;65855;42.030;13.078;2023-08-07T09:55:23;93353.50;;;26.22
76895;BMP280;65855;42.030;13.078;2023-08-07T09:57:49;93347.72;;;26.64
76895;BMP280;65855;42.030;13.078;2023-08-07T10:00:15;93345.72;;;27.94
76895;BMP280;65855;42.030;13.078;2023-08-07T10:02:42;93335.84;;;28.67
76895;BMP280;65855;42.030;13.078;2023-08-07T10:05:10;93349.16;;;27.51
76895;BMP280;65855;42.030;13.078;2023-08-07T10:07:37;93348.31;;;26.82
76895;BMP280;65855;42.030;13.078;2023-08-07T10:10:04;93343.25;;;26.61
76895;BMP280;65855;42.030;13.078;2023-08-07T10:12:30;93339.00;;;26.38
76895;BMP280;65855;42.030;13.078;2023-08-07T10:14:55;93335.38;;;27.94
76895;BMP280;65855;42.030;13.078;2023-08-07T10:17:21;93339.44;;;25.25
76895;BMP280;65855;42.030;13.078;2023-08-07T10:19:48;93342.06;;;27.59
76895;BMP280;65855;42.030;13.078;2023-08-07T10:22:15;93330.50;;;27.99
76895;BMP280;65855;42.030;13.078;2023-08-07T10:24:42;93331.66;;;28.21
76895;BMP280;65855;42.030;13.078;2023-08-07T10:27:10;93335.63;;;27.70
76895;BMP280;65855;42.030;13.078;2023-08-07T10:29:37;93347.44;;;26.99
76895;BMP280;65855;42.030;13.078;2023-08-07T10:32:05;93329.53;;;28.94
76895;BMP280;65855;42.030;13.078;2023-08-07T10:34:34;93328.16;;;30.42
76895;BMP280;65855;42.030;13.078;2023-08-07T10:37:00;93327.94;;;31.43
76895;BMP280;65855;42.030;13.078;2023-08-07T10:39:25;93330.72;;;31.52
76895;BMP280;65855;42.030;13.078;2023-08-07T10:41:55;93335.31;;;28.53
76895;BMP280;65855;42.030;13.078;2023-08-07T10:44:29;93331.78;;;28.66
76895;BMP280;65855;42.030;13.078;2023-08-07T10:46:57;93327.38;;;27.82
76895;BMP280;65855;42.030;13.078;2023-08-07T10:51:58;93329.50;;;30.82
76895;BMP280;65855;42.030;13.078;2023-08-07T10:54:24;93335.59;;;26.51
76895;BMP280;65855;42.030;13.078;2023-08-07T10:56:54;93334.25;;;28.21
76895;BMP280;65855;42.030;13.078;2023-08-07T10:59:22;93328.13;;;28.08
76895;BMP280;65855;42.030;13.078;2023-08-07T11:01:53;93325.41;;;28.93
76895;BMP280;65855;42.030;13.078;2023-08-07T11:04:19;93327.63;;;30.32
76895;BMP280;65855;42.030;13.078;2023-08-07T11:06:47;93322.63;;;26.54
76895;BMP280;65855;42.030;13.078;2023-08-07T11:09:13;93325.13;;;27.84
76895;BMP280;65855;42.030;13.078;2023-08-07T11:11:41;93327.91;;;26.41
76895;BMP280;65855;42.030;13.078;2023-08-07T11:14:11;93327.97;;;25.46
76895;BMP280;65855;42.030;13.078;2023-08-07T11:16:37;93329.53;;;26.11
76895;BMP280;65855;42.030;13.078;2023-08-07T11:19:04;93324.19;;;26.42
76895;BMP280;65855;42.030;13.078;2023-08-07T11:21:32;93332.38;;;25.46
76895;BMP280;65855;42.030;13.078;2023-08-07T11:23:58;93330.78;;;25.86
76895;BMP280;65855;42.030;13.078;2023-08-07T11:26:24;93336.00;;;25.65
76895;BMP280;65855;42.030;13.078;2023-08-07T11:28:56;93326.53;;;27.88
76895;BMP280;65855;42.030;13.078;2023-08-07T11:31:22;93335.00;;;25.25
76895;BMP280;65855;42.030;13.078;2023-08-07T11:33:56;93334.34;;;27.52
76895;BMP280;65855;42.030;13.078;2023-08-07T11:36:23;93334.03;;;26.60
76895;BMP280;65855;42.030;13.078;2023-08-07T11:38:48;93335.75;;;27.20
76895;BMP280;65855;42.030;13.078;2023-08-07T11:41:15;93318.03;;;28.92
76895;BMP280;65855;42.030;13.078;2023-08-07T11:43:41;93322.19;;;28.86
76895;BMP280;65855;42.030;13.078;2023-08-07T11:46:09;93331.91;;;27.71
76895;BMP280;65855;42.030;13.078;2023-08-07T11:48:36;93332.00;;;28.23
76895;BMP280;65855;42.030;13.078;2023-08-07T11:51:03;93330.94;;;28.72
76895;BMP280;65855;42.030;13.078;2023-08-07T11:53:31;93332.97;;;27.04
76895;BMP280;65855;42.030;13.078;2023-08-07T11:55:58;93330.56;;;25.32
76895;BMP280;65855;42.030;13.078;2023-08-07T11:58:28;93337.56;;;27.96
76895;BMP280;65855;42.030;13.078;2023-08-07T12:00:58;93339.19;;;27.83
76895;BMP280;65855;42.030;13.078;2023-08-07T12:03:37;93323.72;;;29.06
76895;BMP280;65855;42.030;13.078;2023-08-07T12:06:07;93324.19;;;31.16
76895;BMP280;65855;42.030;13.078;2023-08-07T12:08:39;93327.25;;;27.23
76895;BMP280;65855;42.030;13.078;2023-08-07T12:11:07;93328.56;;;26.52
76895;BMP280;65855;42.030;13.078;2023-08-07T12:13:40;93331.00;;;27.15
76895;BMP280;65855;42.030;13.078;2023-08-07T12:16:06;93319.94;;;28.65
76895;BMP280;65855;42.030;13.078;2023-08-07T12:18:33;93320.75;;;28.33
76895;BMP280;65855;42.030;13.078;2023-08-07T12:21:02;93322.63;;;27.74
76895;BMP280;65855;42.030;13.078;2023-08-07T12:23:29;93319.31;;;30.05
76895;BMP280;65855;42.030;13.078;2023-08-07T12:25:54;93318.97;;;31.44
76895;BMP280;65855;42.030;13.078;2023-08-07T12:28:20;93317.75;;;31.65
76895;BMP280;65855;42.030;13.078;2023-08-07T12:30:47;93315.88;;;31.65
76895;BMP280;65855;42.030;13.078;2023-08-07T12:33:12;93309.78;;;31.12
76895;BMP280;65855;42.030;13.078;2023-08-07T12:35:38;93308.41;;;31.91
76895;BMP280;65855;42.030;13.078;2023-08-07T12:38:04;93303.44;;;30.50
76895;BMP280;65855;42.030;13.078;2023-08-07T12:40:30;93306.38;;;31.15
76895;BMP280;65855;42.030;13.078;2023-08-07T12:42:57;93303.13;;;29.94
76895;BMP280;65855;42.030;13.078;2023-08-07T12:45:23;93309.16;;;31.64
76895;BMP280;65855;42.030;13.078;2023-08-07T12:47:48;93313.75;;;30.54
76895;BMP280;65855;42.030;13.078;2023-08-07T12:50:14;93311.41;;;31.78
76895;BMP280;65855;42.030;13.078;2023-08-07T12:52:39;93315.84;;;30.27
76895;BMP280;65855;42.030;13.078;2023-08-07T12:55:05;93308.31;;;32.07
76895;BMP280;65855;42.030;13.078;2023-08-07T12:57:31;93311.63;;;32.36
76895;BMP280;65855;42.030;13.078;2023-08-07T12:59:56;93306.59;;;32.41
76895;BMP280;65855;42.030;13.078;2023-08-07T13:02:22;93319.47;;;31.95
76895;BMP280;65855;42.030;13.078;2023-08-07T13:04:47;93314.44;;;29.50
76895;BMP280;65855;42.030;13.078;2023-08-07T13:07:12;93317.25;;;29.78
76895;BMP280;65855;42.030;13.078;2023-08-07T13:09:38;93318.41;;;33.28
76895;BMP280;65855;42.030;13.078;2023-08-07T13:12:04;93314.34;;;31.52
76895;BMP280;65855;42.030;13.078;2023-08-07T13:14:29;93302.41;;;34.61
76895;BMP280;65855;42.030;13.078;2023-08-07T13:16:55;93298.31;;;35.16
76895;BMP280;65855;42.030;13.078;2023-08-07T13:19:20;93291.44;;;35.36
76895;BMP280;65855;42.030;13.078;2023-08-07T13:21:46;93298.31;;;35.78
76895;BMP280;65855;42.030;13.078;2023-08-07T13:24:12;93303.78;;;33.93
76895;BMP280;65855;42.030;13.078;2023-08-07T13:26:37;93307.19;;;35.19
76895;BMP280;65855;42.030;13.078;2023-08-07T13:29:04;93310.06;;;34.94
76895;BMP280;65855;42.030;13.078;2023-08-07T13:31:29;93319.78;;;33.95
76895;BMP280;65855;42.030;13.078;2023-08-07T13:33:54;93314.00;;;32.18
76895;BMP280;65855;42.030;13.078;2023-08-07T13:36:20;93319.28;;;31.90
76895;BMP280;65855;42.030;13.078;2023-08-07T13:38:45;93321.97;;;30.52
76895;BMP280;65855;42.030;13.078;2023-08-07T13:41:11;93318.53;;;30.40
76895;BMP280;65855;42.030;13.078;2023-08-07T13:43:37;93310.63;;;29.93
76895;BMP280;65855;42.030;13.078;2023-08-07T13:46:02;93323.78;;;29.25
76895;BMP280;65855;42.030;13.078;2023-08-07T13:48:28;93324.22;;;29.81
76895;BMP280;65855;42.030;13.078;2023-08-07T13:50:54;93333.59;;;28.92
76895;BMP280;65855;42.030;13.078;2023-08-07T13:53:19;93323.53;;;28.97
76895;BMP280;65855;42.030;13.078;2023-08-07T13:55:46;93336.31;;;27.74
76895;BMP280;65855;42.030;13.078;2023-08-07T13:58:12;93338.41;;;28.45